KRAP/RAP METAR and TAF weather

Enter ICAO airport designator
Station Type Date Time Source
KRAP METAR 2022/05/26 03:52 UTC NOAA

KRAP 260352Z 00000KT 10SM CLR 09/03 A2994 RMK AO2 SLP135 T00940033


Station Type Date Time Source
KRAP Decoded METAR 2022/05/26 03:52 UTC NOAA

RAPID CITY REGIONAL AIRPORT , SD, United States (KRAP) 44-03N 103-03W 965M
May 25, 2022 - 11:52 PM EDT / 2022.05.26 0352 UTC
Wind: Calm:0
Visibility: 10 mile(s):0
Sky conditions: clear
Temperature: 48.9 F (9.4 C)
Dew Point: 37.9 F (3.3 C)
Relative Humidity: 65%
Pressure (altimeter): 29.94 in. Hg (1013 hPa)
ob: KRAP 260352Z 00000KT 10SM CLR 09/03 A2994 RMK AO2 SLP135 T00940033
cycle: 4

Station Type Date Time Source
KRAP TAF 2022/05/25 18:24 UTC NOAA

TAF KRAP 251723Z 2518/2618 VRB05KT P6SM SKC

Example: see airport list